Time;durP1;ratioP1;P1;durP2;ratioP2;P2;SDS_P1;SDS_P2;PMS_P1;PMS_P2;Temp;Humidity;BMP_temperature;BMP_pressure;BME280_temperature;BME280_humidity;BME280_pressure;Samples;Min_cycle;Max_cycle;Signal;HPM_P1;HPM_P2
2022/04/17 00:00:20;;;;;;;4.10;3.78;;;;;;;;;;5008529;28;20046;-80
2022/04/17 00:02:46;;;;;;;3.92;3.63;;;;;;;;;;5006469;28;20501;-79
2022/04/17 00:05:12;;;;;;;4.20;3.80;;;;;;;;;;5038380;28;20057;-79
2022/04/17 00:07:38;;;;;;;3.95;3.65;;;;;;;;;;5007092;28;20544;-79
2022/04/17 00:10:05;;;;;;;3.88;3.58;;;;;;;;;;5002725;28;20391;-80
2022/04/17 00:12:31;;;;;;;3.80;3.42;;;;;;;;;;4998550;28;20048;-80
2022/04/17 00:14:57;;;;;;;3.72;3.42;;;;;;;;;;4993265;28;20034;-80
2022/04/17 00:17:24;;;;;;;4.43;3.97;;;;;;;;;;4992707;28;20072;-79
2022/04/17 00:19:50;;;;;;;4.50;3.80;;;;;;;;;;4995142;28;20038;-79
2022/04/17 00:22:16;;;;;;;4.00;3.55;;;;;;;;;;4995118;28;20041;-80
2022/04/17 00:24:42;;;;;;;4.50;4.00;;;;;;;;;;5000023;28;20115;-79
2022/04/17 00:27:08;;;;;;;4.22;3.75;;;;;;;;;;5004043;28;20170;-79
2022/04/17 00:29:35;;;;;;;3.60;3.30;;;;;;;;;;5007869;28;20051;-79
2022/04/17 00:32:01;;;;;;;4.30;3.90;;;;;;;;;;5001811;28;20061;-80
2022/04/17 00:34:29;;;;;;;5.75;3.70;;;;;;;;;;5004007;28;20128;-79
2022/04/17 00:36:59;;;;;;;5.72;4.10;;;;;;;;;;5011801;28;20099;-79
2022/04/17 00:39:25;;;;;;;4.28;3.83;;;;;;;;;;5003847;28;20128;-79
2022/04/17 00:41:53;;;;;;;4.82;4.05;;;;;;;;;;5011745;28;20092;-80
2022/04/17 00:44:19;;;;;;;3.88;3.58;;;;;;;;;;5006849;28;20037;-79
2022/04/17 00:46:45;;;;;;;5.50;3.97;;;;;;;;;;5008113;28;20494;-80
2022/04/17 00:49:12;;;;;;;4.45;3.92;;;;;;;;;;5009560;28;20856;-79
2022/04/17 00:51:38;;;;;;;4.50;4.10;;;;;;;;;;5007098;28;20453;-80
2022/04/17 00:54:05;;;;;;;4.40;4.00;;;;;;;;;;5000283;28;20049;-80
2022/04/17 00:56:31;;;;;;;4.65;4.03;;;;;;;;;;5028831;28;20045;-80
2022/04/17 00:58:58;;;;;;;4.57;4.10;;;;;;;;;;4999191;28;20073;-79
2022/04/17 01:01:24;;;;;;;4.75;4.25;;;;;;;;;;5001620;28;20049;-80
2022/04/17 01:03:51;;;;;;;4.68;4.28;;;;;;;;;;5006935;28;20072;-80
2022/04/17 01:06:17;;;;;;;4.55;4.13;;;;;;;;;;5006490;28;20045;-79
2022/04/17 01:08:43;;;;;;;5.20;4.22;;;;;;;;;;5006577;28;20147;-79
2022/04/17 01:11:10;;;;;;;6.57;4.45;;;;;;;;;;4998943;28;20545;-80
2022/04/17 01:13:36;;;;;;;4.75;4.32;;;;;;;;;;4995676;28;20049;-83
2022/04/17 01:16:05;;;;;;;4.63;4.22;;;;;;;;;;5006532;28;20884;-80
2022/04/17 01:18:31;;;;;;;5.00;4.50;;;;;;;;;;5009952;28;20046;-79
2022/04/17 01:20:57;;;;;;;4.60;3.90;;;;;;;;;;5008437;28;20042;-80
2022/04/17 01:28:52;;;;;;;5.05;4.57;;;;;;;;;;5023759;28;20046;-80
2022/04/17 01:31:18;;;;;;;4.97;4.47;;;;;;;;;;5006654;28;20068;-80
2022/04/17 01:33:45;;;;;;;5.00;4.40;;;;;;;;;;5003835;28;20041;-79
2022/04/17 01:36:11;;;;;;;5.60;4.70;;;;;;;;;;4997561;28;20045;-80
2022/04/17 01:38:38;;;;;;;5.88;4.93;;;;;;;;;;5006119;28;20053;-79
2022/04/17 01:41:04;;;;;;;6.95;4.65;;;;;;;;;;5007231;28;20652;-80
2022/04/17 01:43:30;;;;;;;4.43;4.03;;;;;;;;;;5002051;28;20144;-79
2022/04/17 01:45:59;;;;;;;6.13;4.60;;;;;;;;;;5004358;28;20515;-79
2022/04/17 01:48:25;;;;;;;5.57;4.65;;;;;;;;;;5013878;28;20045;-79
2022/04/17 01:50:52;;;;;;;5.47;4.40;;;;;;;;;;5011021;28;20049;-79
2022/04/17 01:53:18;;;;;;;5.60;4.90;;;;;;;;;;5006214;28;20058;-79
2022/04/17 01:55:44;;;;;;;5.15;4.65;;;;;;;;;;5009418;28;20038;-80
2022/04/17 01:58:10;;;;;;;5.57;4.55;;;;;;;;;;5042559;28;20065;-79
2022/04/17 02:00:39;;;;;;;7.40;4.97;;;;;;;;;;5011135;28;20050;-80
2022/04/17 02:03:05;;;;;;;6.00;4.75;;;;;;;;;;5000458;28;20065;-80
2022/04/17 02:05:31;;;;;;;5.18;4.68;;;;;;;;;;5012564;28;20046;-79
2022/04/17 02:07:57;;;;;;;5.78;5.00;;;;;;;;;;5005496;28;20046;-79
2022/04/17 02:10:23;;;;;;;5.28;4.78;;;;;;;;;;5020608;28;20100;-79
2022/04/17 02:12:49;;;;;;;5.60;4.78;;;;;;;;;;5006732;28;20140;-79
2022/04/17 02:15:15;;;;;;;5.53;4.93;;;;;;;;;;4998251;28;20042;-79
2022/04/17 02:17:42;;;;;;;5.32;4.82;;;;;;;;;;5014475;28;20041;-79
2022/04/17 02:20:08;;;;;;;6.30;5.03;;;;;;;;;;4999523;28;20368;-79
2022/04/17 02:22:34;;;;;;;5.32;4.82;;;;;;;;;;5019794;28;20136;-79
2022/04/17 02:25:00;;;;;;;5.38;4.88;;;;;;;;;;5058329;28;20460;-79
2022/04/17 02:27:26;;;;;;;5.75;5.18;;;;;;;;;;5009092;28;20038;-78
2022/04/17 02:29:52;;;;;;;6.00;5.40;;;;;;;;;;5009406;28;20087;-79
2022/04/17 02:32:18;;;;;;;6.28;5.07;;;;;;;;;;5009541;28;20057;-79
2022/04/17 02:34:44;;;;;;;5.72;5.13;;;;;;;;;;5002387;28;20057;-79
2022/04/17 02:37:10;;;;;;;5.82;5.30;;;;;;;;;;5008717;28;20042;-79
2022/04/17 02:39:37;;;;;;;5.55;5.05;;;;;;;;;;5007932;28;20050;-79
2022/04/17 02:42:03;;;;;;;7.65;5.75;;;;;;;;;;5010100;28;20046;-79
2022/04/17 02:44:29;;;;;;;10.05;6.07;;;;;;;;;;5015385;28;20048;-79
2022/04/17 02:49:40;;;;;;;5.78;5.13;;;;;;;;;;5029573;28;20410;-80
2022/04/17 02:52:12;;;;;;;5.88;5.28;;;;;;;;;;5008750;28;20084;-79
2022/04/17 02:54:38;;;;;;;6.30;5.68;;;;;;;;;;5004075;28;20081;-79
2022/04/17 02:57:05;;;;;;;6.38;5.28;;;;;;;;;;5003367;28;20045;-79
2022/04/17 02:59:31;;;;;;;7.97;5.93;;;;;;;;;;5013444;28;20069;-79
2022/04/17 03:07:26;;;;;;;7.15;5.65;;;;;;;;;;5006677;28;20062;-79
2022/04/17 03:09:52;;;;;;;6.30;5.25;;;;;;;;;;5009795;28;20500;-79
2022/04/17 03:12:18;;;;;;;6.82;5.30;;;;;;;;;;5010496;28;20056;-79
2022/04/17 03:14:46;;;;;;;8.13;5.82;;;;;;;;;;5011398;28;20046;-79
2022/04/17 03:17:12;;;;;;;7.15;6.00;;;;;;;;;;5018231;28;20046;-79
2022/04/17 03:19:38;;;;;;;6.93;5.80;;;;;;;;;;5013368;28;20460;-79
2022/04/17 03:22:04;;;;;;;6.03;5.43;;;;;;;;;;5038790;28;20164;-79
2022/04/17 03:24:31;;;;;;;6.57;5.30;;;;;;;;;;5012142;28;20077;-79
2022/04/17 03:26:57;;;;;;;7.72;6.68;;;;;;;;;;5020908;28;20045;-79
2022/04/17 03:29:24;;;;;;;6.50;5.80;;;;;;;;;;5012708;28;21248;-79
2022/04/17 03:31:50;;;;;;;6.15;5.55;;;;;;;;;;5014766;28;20116;-79
2022/04/17 03:34:16;;;;;;;6.70;5.60;;;;;;;;;;5008692;28;20139;-79
2022/04/17 03:36:43;;;;;;;7.03;6.15;;;;;;;;;;5011958;28;20049;-78
2022/04/17 03:39:09;;;;;;;6.57;5.93;;;;;;;;;;5008188;28;20383;-78
2022/04/17 03:41:35;;;;;;;6.82;5.97;;;;;;;;;;5005934;28;20046;-80
2022/04/17 03:44:04;;;;;;;8.77;5.93;;;;;;;;;;5028669;28;20053;-81
2022/04/17 03:46:30;;;;;;;6.13;5.43;;;;;;;;;;5044375;28;20050;-79
2022/04/17 03:48:56;;;;;;;7.22;5.82;;;;;;;;;;5018546;28;20045;-79
2022/04/17 03:51:22;;;;;;;7.18;5.93;;;;;;;;;;5012672;28;20054;-80
2022/04/17 03:53:51;;;;;;;7.22;6.10;;;;;;;;;;5009479;28;20081;-80
2022/04/17 03:56:17;;;;;;;6.22;5.68;;;;;;;;;;5008015;28;20152;-80
2022/04/17 03:58:43;;;;;;;7.13;6.28;;;;;;;;;;5011841;28;20117;-79
2022/04/17 04:01:09;;;;;;;6.82;6.13;;;;;;;;;;4995067;28;20042;-79
2022/04/17 04:03:37;;;;;;;7.13;6.25;;;;;;;;;;5022725;28;20119;-79
2022/04/17 04:06:04;;;;;;;7.20;6.35;;;;;;;;;;5001297;28;20076;-79
2022/04/17 04:08:30;;;;;;;7.45;6.38;;;;;;;;;;5017794;28;20509;-79
2022/04/17 04:10:56;;;;;;;7.47;6.70;;;;;;;;;;5012967;28;20045;-79
2022/04/17 04:13:22;;;;;;;7.20;6.50;;;;;;;;;;5011842;28;20044;-79
2022/04/17 04:15:48;;;;;;;9.35;6.78;;;;;;;;;;5011892;28;20095;-79
2022/04/17 04:18:14;;;;;;;7.47;6.65;;;;;;;;;;5009112;28;20045;-79
2022/04/17 04:20:40;;;;;;;7.82;6.65;;;;;;;;;;5010046;28;20723;-80
2022/04/17 04:23:06;;;;;;;7.20;6.50;;;;;;;;;;5040313;28;20518;-79
2022/04/17 04:25:32;;;;;;;7.60;6.60;;;;;;;;;;5002285;28;20072;-79
2022/04/17 04:30:43;;;;;;;7.70;6.82;;;;;;;;;;4998597;28;20080;-80
2022/04/17 04:33:09;;;;;;;7.40;6.55;;;;;;;;;;5009654;28;20045;-79
2022/04/17 04:35:35;;;;;;;6.65;5.95;;;;;;;;;;5004437;28;20043;-80
2022/04/17 04:38:01;;;;;;;8.52;6.93;;;;;;;;;;5007833;28;20073;-83
2022/04/17 04:40:31;;;;;;;7.65;6.82;;;;;;;;;;5012502;28;20049;-79
2022/04/17 04:43:01;;;;;;;8.05;6.80;;;;;;;;;;5002200;28;20061;-79
2022/04/17 04:48:12;;;;;;;7.82;6.65;;;;;;;;;;5033119;28;20105;-79
2022/04/17 04:50:38;;;;;;;9.85;7.07;;;;;;;;;;5014075;28;20037;-79
2022/04/17 04:53:04;;;;;;;7.68;6.82;;;;;;;;;;5000096;28;20081;-80
2022/04/17 04:55:30;;;;;;;8.00;6.75;;;;;;;;;;5014665;28;20133;-79
2022/04/17 04:57:57;;;;;;;7.88;7.00;;;;;;;;;;5025516;28;20052;-79
2022/04/17 05:00:23;;;;;;;7.95;6.85;;;;;;;;;;5021376;28;21271;-79
2022/04/17 05:02:49;;;;;;;7.50;6.43;;;;;;;;;;5007665;28;20050;-79
2022/04/17 05:05:15;;;;;;;7.32;6.60;;;;;;;;;;5008292;28;20073;-79
2022/04/17 05:07:41;;;;;;;7.07;6.38;;;;;;;;;;5010800;28;20092;-78
2022/04/17 05:10:07;;;;;;;8.18;6.90;;;;;;;;;;5005950;28;20046;-79
2022/04/17 05:12:33;;;;;;;8.05;7.22;;;;;;;;;;5007328;28;20065;-79
2022/04/17 05:15:00;;;;;;;9.10;7.50;;;;;;;;;;5008008;28;20041;-79
2022/04/17 05:17:26;;;;;;;8.93;7.35;;;;;;;;;;5009104;28;20465;-78
2022/04/17 05:19:52;;;;;;;7.82;6.60;;;;;;;;;;5022733;28;20440;-79
2022/04/17 05:22:20;;;;;;;7.32;6.63;;;;;;;;;;5009843;28;20142;-79
2022/04/17 05:24:47;;;;;;;8.10;6.88;;;;;;;;;;5009223;28;20088;-79
2022/04/17 05:27:13;;;;;;;7.53;6.80;;;;;;;;;;5011865;28;20034;-80
2022/04/17 05:29:40;;;;;;;9.05;6.78;;;;;;;;;;5001067;28;20152;-78
2022/04/17 05:32:06;;;;;;;8.55;6.90;;;;;;;;;;5003092;28;20042;-79
2022/04/17 05:34:34;;;;;;;7.28;6.57;;;;;;;;;;5005777;28;20054;-79
2022/04/17 05:37:01;;;;;;;7.70;6.88;;;;;;;;;;5007946;28;20504;-79
2022/04/17 05:39:27;;;;;;;7.45;6.68;;;;;;;;;;5044625;28;20072;-79
2022/04/17 05:41:53;;;;;;;8.00;7.20;;;;;;;;;;5007187;28;20081;-79
2022/04/17 05:44:19;;;;;;;9.10;6.93;;;;;;;;;;4999527;28;20140;-80
2022/04/17 05:46:45;;;;;;;8.73;7.10;;;;;;;;;;5018309;28;20084;-79
2022/04/17 05:49:12;;;;;;;8.27;7.38;;;;;;;;;;5021993;28;20091;-79
2022/04/17 05:51:38;;;;;;;9.38;8.35;;;;;;;;;;5012073;28;20056;-79
2022/04/17 05:54:07;;;;;;;8.40;7.47;;;;;;;;;;5017051;28;20052;-79
2022/04/17 05:56:35;;;;;;;9.02;7.63;;;;;;;;;;5015587;28;20518;-79
2022/04/17 05:59:01;;;;;;;10.00;7.32;;;;;;;;;;5015962;28;20034;-79
2022/04/17 06:01:29;;;;;;;8.50;7.60;;;;;;;;;;4995790;28;20062;-79
2022/04/17 06:03:55;;;;;;;8.32;7.30;;;;;;;;;;4996254;28;20128;-79
2022/04/17 06:06:21;;;;;;;8.88;7.80;;;;;;;;;;5001297;28;20054;-79
2022/04/17 06:08:47;;;;;;;8.80;7.57;;;;;;;;;;5007693;28;20050;-78
2022/04/17 06:11:13;;;;;;;8.68;7.78;;;;;;;;;;5009660;28;20041;-79
2022/04/17 06:13:40;;;;;;;8.60;7.50;;;;;;;;;;5000495;28;20058;-79
2022/04/17 06:16:07;;;;;;;8.45;7.55;;;;;;;;;;5013956;28;20034;-79
2022/04/17 06:18:33;;;;;;;8.23;7.38;;;;;;;;;;5035885;28;20099;-79
2022/04/17 06:21:00;;;;;;;8.73;7.82;;;;;;;;;;5001780;28;20046;-79
2022/04/17 06:23:26;;;;;;;8.88;7.82;;;;;;;;;;5010751;28;20044;-78
2022/04/17 06:25:52;;;;;;;9.80;7.88;;;;;;;;;;5018688;28;20050;-79
2022/04/17 06:28:18;;;;;;;8.13;7.32;;;;;;;;;;5012644;28;20409;-79
2022/04/17 06:30:44;;;;;;;8.10;7.20;;;;;;;;;;5045099;28;20065;-79
2022/04/17 06:33:10;;;;;;;8.70;7.57;;;;;;;;;;5010199;28;20116;-79
2022/04/17 06:35:36;;;;;;;8.55;7.20;;;;;;;;;;5008997;28;20490;-79
2022/04/17 06:38:02;;;;;;;8.90;8.00;;;;;;;;;;5002466;28;20048;-78
2022/04/17 06:40:29;;;;;;;9.23;8.32;;;;;;;;;;5011780;28;20056;-79
2022/04/17 06:42:58;;;;;;;9.63;8.70;;;;;;;;;;5005706;28;20077;-79
2022/04/17 06:45:27;;;;;;;9.32;8.35;;;;;;;;;;5008455;28;20131;-79
2022/04/17 06:47:54;;;;;;;8.30;7.28;;;;;;;;;;5001541;28;20558;-79
2022/04/17 06:50:20;;;;;;;9.35;7.82;;;;;;;;;;5007662;28;20053;-79
2022/04/17 06:52:47;;;;;;;8.50;7.60;;;;;;;;;;5043299;28;20056;-79
2022/04/17 06:55:13;;;;;;;8.82;7.93;;;;;;;;;;5034120;28;20056;-79
2022/04/17 06:57:44;;;;;;;10.00;7.70;;;;;;;;;;5013052;28;20045;-79
2022/04/17 07:00:10;;;;;;;8.13;7.22;;;;;;;;;;5005151;28;20050;-79
2022/04/17 07:02:37;;;;;;;11.55;7.97;;;;;;;;;;5041284;28;20490;-79
2022/04/17 07:05:03;;;;;;;10.13;7.40;;;;;;;;;;5007638;28;20042;-79
2022/04/17 07:07:30;;;;;;;9.07;8.18;;;;;;;;;;5004927;28;20075;-78
2022/04/17 07:09:56;;;;;;;12.35;8.30;;;;;;;;;;5006492;28;20436;-79
2022/04/17 07:12:22;;;;;;;8.77;7.68;;;;;;;;;;5009194;28;20041;-79
2022/04/17 07:14:48;;;;;;;9.52;7.90;;;;;;;;;;5000869;28;20489;-79
2022/04/17 07:17:14;;;;;;;8.68;7.78;;;;;;;;;;5009180;28;20119;-79
2022/04/17 07:19:40;;;;;;;8.60;7.70;;;;;;;;;;5044043;28;20054;-79
2022/04/17 07:22:06;;;;;;;8.73;7.82;;;;;;;;;;5015394;28;20120;-79
2022/04/17 07:24:32;;;;;;;9.82;8.27;;;;;;;;;;5014457;28;20144;-79
2022/04/17 07:27:00;;;;;;;9.68;7.53;;;;;;;;;;5010111;28;20049;-79
2022/04/17 07:29:26;;;;;;;8.32;7.47;;;;;;;;;;5035141;28;20092;-79
2022/04/17 07:31:55;;;;;;;7.85;6.78;;;;;;;;;;5012189;28;20525;-79
2022/04/17 07:34:21;;;;;;;7.75;6.72;;;;;;;;;;5048554;28;20050;-79
2022/04/17 07:36:47;;;;;;;7.97;7.18;;;;;;;;;;5008687;28;20316;-79
2022/04/17 07:39:17;;;;;;;8.40;6.97;;;;;;;;;;5002858;28;20046;-79
2022/04/17 07:41:44;;;;;;;7.82;7.00;;;;;;;;;;5008311;28;20429;-79
2022/04/17 07:44:11;;;;;;;8.98;7.82;;;;;;;;;;5016436;28;20568;-79
2022/04/17 07:46:38;;;;;;;7.57;6.80;;;;;;;;;;5015981;28;20109;-79
2022/04/17 07:49:04;;;;;;;7.75;6.80;;;;;;;;;;5006421;28;20407;-79
2022/04/17 07:51:30;;;;;;;7.10;6.40;;;;;;;;;;5033215;28;20046;-79
2022/04/17 07:53:56;;;;;;;7.55;6.50;;;;;;;;;;5010285;28;20060;-79
2022/04/17 07:56:22;;;;;;;8.88;7.72;;;;;;;;;;5003336;28;20470;-79
2022/04/17 07:58:48;;;;;;;8.38;7.50;;;;;;;;;;5016436;28;20041;-79
2022/04/17 08:01:16;;;;;;;7.60;6.68;;;;;;;;;;5009805;28;20387;-80
2022/04/17 08:06:10;;;;;;;6.50;5.85;;;;;;;;;;4999230;28;20548;-79
2022/04/17 08:08:37;;;;;;;7.47;6.65;;;;;;;;;;5000465;28;20052;-80
2022/04/17 08:11:04;;;;;;;6.57;5.97;;;;;;;;;;4999738;28;20049;-80
2022/04/17 08:13:30;;;;;;;7.10;6.28;;;;;;;;;;5000932;28;20072;-79
2022/04/17 08:15:56;;;;;;;6.13;5.53;;;;;;;;;;5005903;28;20434;-80
2022/04/17 08:18:22;;;;;;;6.85;6.10;;;;;;;;;;5020784;28;20057;-80
2022/04/17 08:20:48;;;;;;;6.40;5.80;;;;;;;;;;5002426;28;20148;-80
2022/04/17 08:23:14;;;;;;;6.95;6.25;;;;;;;;;;5003239;28;20054;-80
2022/04/17 08:25:40;;;;;;;6.55;5.93;;;;;;;;;;5012829;28;20509;-80
2022/04/17 08:28:09;;;;;;;6.90;6.20;;;;;;;;;;5006634;28;20115;-81
2022/04/17 08:30:35;;;;;;;6.65;5.93;;;;;;;;;;5016293;28;20518;-81
2022/04/17 08:33:02;;;;;;;7.03;6.13;;;;;;;;;;5021222;28;20077;-80
2022/04/17 08:35:29;;;;;;;6.47;5.80;;;;;;;;;;5010259;28;20482;-80
2022/04/17 08:37:57;;;;;;;7.30;6.22;;;;;;;;;;5009902;28;20046;-83
2022/04/17 08:40:26;;;;;;;7.15;6.45;;;;;;;;;;5009682;28;20155;-81
2022/04/17 08:42:52;;;;;;;7.63;6.22;;;;;;;;;;4980123;28;20042;-81
2022/04/17 08:45:18;;;;;;;8.18;6.30;;;;;;;;;;5002999;28;20054;-81
2022/04/17 08:47:45;;;;;;;6.97;6.07;;;;;;;;;;4995226;28;20046;-81
2022/04/17 08:50:12;;;;;;;7.20;6.50;;;;;;;;;;4985214;28;20481;-82
2022/04/17 08:52:41;;;;;;;9.98;6.88;;;;;;;;;;5000429;28;20099;-82
2022/04/17 08:55:07;;;;;;;6.95;6.10;;;;;;;;;;4996944;28;20444;-81
2022/04/17 08:57:33;;;;;;;7.90;6.40;;;;;;;;;;4998199;28;20042;-81
2022/04/17 08:59:59;;;;;;;6.53;5.93;;;;;;;;;;4995157;28;20053;-80
2022/04/17 09:02:25;;;;;;;7.30;6.25;;;;;;;;;;5001730;28;20048;-83
2022/04/17 09:04:52;;;;;;;6.45;5.70;;;;;;;;;;4987536;28;20108;-83
2022/04/17 09:07:18;;;;;;;6.30;5.70;;;;;;;;;;5003331;28;20084;-83
2022/04/17 09:09:53;;;;;;;6.55;5.85;;;;;;;;;;4991529;28;20050;-82
2022/04/17 09:12:21;;;;;;;6.03;4.95;;;;;;;;;;5005301;28;20447;-81
2022/04/17 09:14:47;;;;;;;7.32;5.57;;;;;;;;;;4978562;28;20043;-81
2022/04/17 09:17:13;;;;;;;6.22;5.35;;;;;;;;;;4988630;28;20052;-82
2022/04/17 09:19:39;;;;;;;6.05;5.00;;;;;;;;;;4991086;28;20042;-82
2022/04/17 09:22:06;;;;;;;7.38;5.50;;;;;;;;;;4994023;28;20498;-83
2022/04/17 09:24:38;;;;;;;5.63;5.05;;;;;;;;;;5018276;28;20046;-82
2022/04/17 09:27:05;;;;;;;6.47;5.87;;;;;;;;;;4992975;28;20645;-81
2022/04/17 09:29:33;;;;;;;7.80;5.43;;;;;;;;;;4995018;28;20061;-81
2022/04/17 09:31:59;;;;;;;6.32;5.70;;;;;;;;;;4985375;28;20525;-81
2022/04/17 09:34:25;;;;;;;6.50;5.65;;;;;;;;;;4991590;28;20053;-82
2022/04/17 09:37:01;;;;;;;6.53;5.32;;;;;;;;;;5015600;28;20400;-82
2022/04/17 09:39:33;;;;;;;5.55;4.95;;;;;;;;;;4986218;28;20049;-82
2022/04/17 09:42:00;;;;;;;6.03;5.45;;;;;;;;;;5005120;28;20050;-81
2022/04/17 09:44:38;;;;;;;6.03;5.32;;;;;;;;;;4980898;28;20053;-81
2022/04/17 09:47:06;;;;;;;5.75;5.15;;;;;;;;;;5001869;28;20053;-82
2022/04/17 09:49:49;;;;;;;5.82;4.65;;;;;;;;;;4999531;28;20494;-83
2022/04/17 09:52:15;;;;;;;6.65;5.80;;;;;;;;;;5000200;28;20194;-83
2022/04/17 09:54:42;;;;;;;8.23;5.65;;;;;;;;;;4996970;28;20081;-83
2022/04/17 09:57:08;;;;;;;6.15;5.50;;;;;;;;;;5010344;28;20057;-82
2022/04/17 09:59:36;;;;;;;6.47;4.93;;;;;;;;;;4995769;28;20509;-84
2022/04/17 10:02:04;;;;;;;5.97;5.38;;;;;;;;;;4982545;28;20065;-82
2022/04/17 10:04:36;;;;;;;6.40;5.57;;;;;;;;;;4971027;28;20058;-83
2022/04/17 10:07:04;;;;;;;6.47;5.38;;;;;;;;;;4980871;28;20046;-82
2022/04/17 10:09:31;;;;;;;6.80;5.50;;;;;;;;;;4990689;28;20061;-83
2022/04/17 10:11:59;;;;;;;7.50;5.10;;;;;;;;;;5008487;28;20054;-83
2022/04/17 10:14:27;;;;;;;6.93;5.60;;;;;;;;;;5010968;28;20053;-84
2022/04/17 10:16:54;;;;;;;6.45;5.85;;;;;;;;;;4984199;28;20499;-83
2022/04/17 10:19:21;;;;;;;6.15;5.50;;;;;;;;;;4977804;28;20039;-82
2022/04/17 10:28:23;;;;;;;6.70;5.68;;;;;;;;;;4961974;28;20005;-83
2022/04/17 10:31:00;;;;;;;6.20;5.60;;;;;;;;;;4989871;28;20054;-84
2022/04/17 10:33:39;;;;;;;6.25;5.68;;;;;;;;;;4968740;28;20100;-84
2022/04/17 10:36:13;;;;;;;6.93;5.70;;;;;;;;;;4994689;28;20112;-84
2022/04/17 10:38:58;;;;;;;7.40;5.45;;;;;;;;;;4993638;28;20433;-83
2022/04/17 10:41:24;;;;;;;5.50;4.97;;;;;;;;;;4994715;28;20193;-85
2022/04/17 10:43:50;;;;;;;5.15;4.75;;;;;;;;;;4995063;28;20065;-84
2022/04/17 10:46:20;;;;;;;6.13;4.60;;;;;;;;;;4997020;28;20140;-77
2022/04/17 10:48:47;;;;;;;6.35;5.10;;;;;;;;;;4995539;28;20543;-87
2022/04/17 10:51:16;;;;;;;5.53;5.03;;;;;;;;;;4999599;28;20486;-87
2022/04/17 10:54:14;;;;;;;4.65;4.25;;;;;;;;;;5003087;28;20050;-87
2022/04/17 10:56:42;;;;;;;7.00;5.28;;;;;;;;;;4983005;28;20058;-86
2022/04/17 10:59:19;;;;;;;5.20;4.70;;;;;;;;;;4995781;28;20495;-86
2022/04/17 11:01:44;;;;;;;4.50;4.10;;;;;;;;;;5007283;28;20045;-85
2022/04/17 11:04:30;;;;;;;4.68;4.20;;;;;;;;;;5025093;28;20097;-86
2022/04/17 11:07:09;;;;;;;4.97;4.03;;;;;;;;;;4990924;28;20052;-84
2022/04/17 11:09:41;;;;;;;5.20;4.20;;;;;;;;;;5004523;28;20574;-83
2022/04/17 11:12:08;;;;;;;5.03;4.22;;;;;;;;;;5000782;28;20052;-83
2022/04/17 11:14:34;;;;;;;3.95;3.65;;;;;;;;;;5003482;28;20050;-84
2022/04/17 11:17:03;;;;;;;5.60;3.65;;;;;;;;;;4997518;28;20124;-86
2022/04/17 11:19:34;;;;;;;4.35;3.20;;;;;;;;;;5008556;28;20400;-82
2022/04/17 11:22:04;;;;;;;4.07;3.50;;;;;;;;;;4992747;28;20048;-83
2022/04/17 11:24:50;;;;;;;4.18;3.78;;;;;;;;;;5012186;28;20053;-87
2022/04/17 11:27:16;;;;;;;4.00;3.60;;;;;;;;;;4985154;28;20382;-83
2022/04/17 11:29:43;;;;;;;4.05;3.38;;;;;;;;;;4993062;28;20053;-84
2022/04/17 11:32:18;;;;;;;3.40;3.10;;;;;;;;;;4987405;28;20058;-82
2022/04/17 11:34:47;;;;;;;4.90;4.10;;;;;;;;;;4994477;28;20050;-84
2022/04/17 11:37:16;;;;;;;5.07;3.72;;;;;;;;;;5001591;28;20105;-82
2022/04/17 11:39:42;;;;;;;4.63;4.07;;;;;;;;;;4996133;28;20042;-85
2022/04/17 11:54:45;;;;;;;5.18;4.55;;;;;;;;;;5088146;27;20370;-78
2022/04/17 11:57:11;;;;;;;6.90;4.30;;;;;;;;;;5066829;28;20122;-79
2022/04/17 11:59:47;;;;;;;4.30;3.90;;;;;;;;;;5068156;28;20048;-79
2022/04/17 12:02:14;;;;;;;4.53;4.13;;;;;;;;;;5083607;28;20063;-79
2022/04/17 12:04:44;;;;;;;5.90;3.72;;;;;;;;;;5059968;28;20051;-80
2022/04/17 12:07:10;;;;;;;4.80;3.50;;;;;;;;;;5065264;28;20044;-81
2022/04/17 12:09:36;;;;;;;4.85;4.32;;;;;;;;;;5080958;28;20071;-78
2022/04/17 12:12:03;;;;;;;4.85;4.40;;;;;;;;;;5083669;28;20089;-75
2022/04/17 12:14:32;;;;;;;5.75;4.05;;;;;;;;;;5056581;28;20057;-83
2022/04/17 12:16:58;;;;;;;4.72;4.20;;;;;;;;;;5065505;28;20045;-80
2022/04/17 12:19:25;;;;;;;3.97;3.67;;;;;;;;;;5063965;28;20059;-80
2022/04/17 12:21:52;;;;;;;5.63;4.95;;;;;;;;;;5060624;28;20487;-81
2022/04/17 12:24:18;;;;;;;5.43;4.00;;;;;;;;;;5054663;28;20052;-81
2022/04/17 12:26:45;;;;;;;4.53;4.13;;;;;;;;;;5065959;28;20063;-81
2022/04/17 12:29:11;;;;;;;4.47;4.07;;;;;;;;;;5069773;28;20051;-81
2022/04/17 12:31:38;;;;;;;4.13;3.72;;;;;;;;;;5085397;28;20036;-80
2022/04/17 12:34:08;;;;;;;4.82;4.32;;;;;;;;;;5072338;28;20483;-81
2022/04/17 12:36:34;;;;;;;4.00;3.58;;;;;;;;;;5061642;28;20041;-81
2022/04/17 12:39:02;;;;;;;4.47;4.07;;;;;;;;;;5085794;28;20050;-81
2022/04/17 12:41:30;;;;;;;4.63;4.13;;;;;;;;;;5080219;28;20055;-80
2022/04/17 12:43:56;;;;;;;4.60;4.20;;;;;;;;;;5068582;28;20056;-81
2022/04/17 12:46:24;;;;;;;5.10;4.00;;;;;;;;;;5079354;28;20040;-81
2022/04/17 12:49:00;;;;;;;4.18;3.80;;;;;;;;;;5086736;28;20056;-81
2022/04/17 12:51:26;;;;;;;5.72;4.13;;;;;;;;;;5056314;28;20375;-80
2022/04/17 12:53:52;;;;;;;4.05;3.65;;;;;;;;;;5061237;28;20056;-81
2022/04/17 12:56:20;;;;;;;5.63;3.70;;;;;;;;;;5069369;28;20524;-81
2022/04/17 12:58:47;;;;;;;4.40;4.00;;;;;;;;;;5085654;28;20083;-81
2022/04/17 13:01:21;;;;;;;3.97;3.55;;;;;;;;;;5056190;28;20047;-80
2022/04/17 13:03:47;;;;;;;4.22;3.92;;;;;;;;;;5067139;28;20052;-81
2022/04/17 13:06:18;;;;;;;5.80;3.70;;;;;;;;;;5073188;28;20044;-80
2022/04/17 13:09:00;;;;;;;3.97;3.60;;;;;;;;;;5065991;28;20072;-81
2022/04/17 13:11:30;;;;;;;4.15;3.78;;;;;;;;;;5038638;28;20053;-81
2022/04/17 13:14:02;;;;;;;6.28;4.55;;;;;;;;;;5050004;28;20112;-80
2022/04/17 13:16:28;;;;;;;4.40;4.05;;;;;;;;;;5037877;28;20047;-80
2022/04/17 13:18:54;;;;;;;4.35;4.03;;;;;;;;;;5073253;28;20044;-80
2022/04/17 13:21:20;;;;;;;4.43;4.03;;;;;;;;;;5049669;28;20929;-80
2022/04/17 13:23:46;;;;;;;4.50;4.10;;;;;;;;;;5067446;28;20055;-80
2022/04/17 13:26:13;;;;;;;4.70;4.30;;;;;;;;;;5051545;28;20068;-80
2022/04/17 13:28:39;;;;;;;5.88;4.00;;;;;;;;;;5052796;28;20055;-81
2022/04/17 13:31:08;;;;;;;4.50;4.00;;;;;;;;;;5046139;28;20041;-80
2022/04/17 13:33:34;;;;;;;4.50;3.97;;;;;;;;;;5061440;28;20040;-81
2022/04/17 13:36:00;;;;;;;4.65;4.25;;;;;;;;;;5069613;28;20059;-80
2022/04/17 13:38:27;;;;;;;4.63;4.22;;;;;;;;;;5049856;28;20044;-80
2022/04/17 13:40:53;;;;;;;4.50;4.10;;;;;;;;;;5072741;28;20599;-80
2022/04/17 13:43:23;;;;;;;5.63;4.10;;;;;;;;;;5062277;28;20556;-80
2022/04/17 13:45:49;;;;;;;4.90;4.40;;;;;;;;;;5067994;28;20037;-80
2022/04/17 13:48:15;;;;;;;4.40;4.00;;;;;;;;;;5049009;28;20048;-79
2022/04/17 13:50:41;;;;;;;4.57;4.18;;;;;;;;;;5054378;28;20503;-80
2022/04/17 13:53:07;;;;;;;4.85;4.35;;;;;;;;;;5045641;28;20419;-80
2022/04/17 13:55:35;;;;;;;7.53;4.70;;;;;;;;;;5073951;28;20059;-80
2022/04/17 13:58:01;;;;;;;4.53;4.13;;;;;;;;;;5065556;28;20040;-80
2022/04/17 14:00:27;;;;;;;4.43;4.07;;;;;;;;;;5048169;28;20052;-80
2022/04/17 14:02:53;;;;;;;4.30;3.83;;;;;;;;;;5052731;28;20067;-81
2022/04/17 14:05:19;;;;;;;4.60;4.03;;;;;;;;;;5050996;28;20484;-80
2022/04/17 14:07:45;;;;;;;4.70;4.25;;;;;;;;;;5069925;28;20494;-80
2022/04/17 14:10:11;;;;;;;4.80;4.40;;;;;;;;;;5049197;28;20044;-80
2022/04/17 14:12:39;;;;;;;4.10;3.80;;;;;;;;;;5060620;28;20582;-80
2022/04/17 14:15:05;;;;;;;4.30;3.90;;;;;;;;;;5069468;28;20048;-80
2022/04/17 14:17:31;;;;;;;4.63;4.22;;;;;;;;;;5040303;28;20048;-80
2022/04/17 14:19:57;;;;;;;4.50;4.10;;;;;;;;;;5052578;28;21560;-81
2022/04/17 14:22:24;;;;;;;4.07;3.78;;;;;;;;;;5050981;28;20106;-80
2022/04/17 14:24:53;;;;;;;3.72;3.42;;;;;;;;;;5053444;28;20109;-80
2022/04/17 14:27:20;;;;;;;4.10;3.70;;;;;;;;;;5049145;28;20399;-80
2022/04/17 14:29:47;;;;;;;4.40;4.00;;;;;;;;;;5053654;28;20060;-80
2022/04/17 14:32:13;;;;;;;3.95;3.65;;;;;;;;;;5071000;28;20379;-81
2022/04/17 14:34:39;;;;;;;4.07;3.67;;;;;;;;;;5071994;28;20424;-81
2022/04/17 14:37:05;;;;;;;4.22;3.92;;;;;;;;;;5044738;28;20048;-80
2022/04/17 14:39:32;;;;;;;4.40;4.00;;;;;;;;;;5060396;28;20066;-81
2022/04/17 14:41:58;;;;;;;4.03;3.72;;;;;;;;;;5070191;28;20041;-80
2022/04/17 14:44:24;;;;;;;4.10;3.80;;;;;;;;;;5071606;28;20483;-80
2022/04/17 14:46:50;;;;;;;3.50;3.28;;;;;;;;;;5065935;28;20049;-81
2022/04/17 14:49:16;;;;;;;4.10;3.70;;;;;;;;;;5070925;28;20392;-81
2022/04/17 14:51:42;;;;;;;4.63;3.53;;;;;;;;;;5053143;28;20430;-81
2022/04/17 14:54:10;;;;;;;3.40;3.20;;;;;;;;;;5065212;28;20048;-81
2022/04/17 14:56:37;;;;;;;3.60;3.30;;;;;;;;;;5045919;28;20135;-80
2022/04/17 14:59:03;;;;;;;3.90;3.60;;;;;;;;;;5048925;28;20045;-81
2022/04/17 15:01:29;;;;;;;3.67;3.40;;;;;;;;;;5067943;28;20080;-80
2022/04/17 15:03:55;;;;;;;4.57;3.50;;;;;;;;;;5042341;28;20049;-80
2022/04/17 15:06:22;;;;;;;3.80;3.42;;;;;;;;;;5057871;28;20051;-81
2022/04/17 15:08:47;;;;;;;3.78;3.40;;;;;;;;;;5064583;28;20048;-81
2022/04/17 15:11:17;;;;;;;3.90;3.60;;;;;;;;;;5058956;28;20133;-81
2022/04/17 15:13:43;;;;;;;3.10;2.90;;;;;;;;;;5071564;28;20044;-81
2022/04/17 15:16:09;;;;;;;4.18;3.13;;;;;;;;;;5056646;28;20032;-81
2022/04/17 15:18:38;;;;;;;2.92;2.72;;;;;;;;;;5066155;28;20048;-81
2022/04/17 15:21:05;;;;;;;2.67;2.50;;;;;;;;;;5052520;28;20044;-81
2022/04/17 15:23:33;;;;;;;2.78;2.58;;;;;;;;;;5048444;28;20045;-81